sensor_id;sensor_type;location;lat;lon;timestamp;pressure;altitude;pressure_sealevel;temperature;humidity
48606;BME280;8482;54.396;18.590;2023-06-14T00:00:59;101765.09;;;17.61;51.58
48606;BME280;8482;54.396;18.590;2023-06-14T00:03:24;101761.72;;;17.59;51.93
48606;BME280;8482;54.396;18.590;2023-06-14T00:05:51;101756.78;;;17.54;52.24
48606;BME280;8482;54.396;18.590;2023-06-14T00:08:17;101748.88;;;17.53;52.59
48606;BME280;8482;54.396;18.590;2023-06-14T00:10:44;101758.03;;;17.50;52.90
48606;BME280;8482;54.396;18.590;2023-06-14T00:13:11;101750.16;;;17.49;53.25
48606;BME280;8482;54.396;18.590;2023-06-14T00:15:37;101753.81;;;17.48;53.41
48606;BME280;8482;54.396;18.590;2023-06-14T00:18:04;101747.59;;;17.47;53.63
48606;BME280;8482;54.396;18.590;2023-06-14T00:20:32;101752.28;;;17.45;53.78
48606;BME280;8482;54.396;18.590;2023-06-14T00:23:01;101747.03;;;17.43;53.92
48606;BME280;8482;54.396;18.590;2023-06-14T00:25:28;101745.50;;;17.41;54.07
48606;BME280;8482;54.396;18.590;2023-06-14T00:27:55;101748.44;;;17.38;53.93
48606;BME280;8482;54.396;18.590;2023-06-14T00:30:21;101744.34;;;17.34;54.07
48606;BME280;8482;54.396;18.590;2023-06-14T00:32:47;101735.91;;;17.28;54.14
48606;BME280;8482;54.396;18.590;2023-06-14T00:35:14;101743.94;;;17.28;54.43
48606;BME280;8482;54.396;18.590;2023-06-14T00:37:40;101743.22;;;17.26;54.40
48606;BME280;8482;54.396;18.590;2023-06-14T00:40:07;101732.22;;;17.20;54.26
48606;BME280;8482;54.396;18.590;2023-06-14T00:42:33;101740.97;;;17.22;54.55
48606;BME280;8482;54.396;18.590;2023-06-14T00:45:00;101745.63;;;17.20;54.72
48606;BME280;8482;54.396;18.590;2023-06-14T00:47:26;101733.63;;;17.14;54.87
48606;BME280;8482;54.396;18.590;2023-06-14T00:49:53;101741.41;;;17.17;55.13
48606;BME280;8482;54.396;18.590;2023-06-14T00:52:23;101739.72;;;17.16;55.35
48606;BME280;8482;54.396;18.590;2023-06-14T00:54:52;101743.22;;;17.16;55.70
48606;BME280;8482;54.396;18.590;2023-06-14T00:57:18;101741.53;;;17.15;55.80
48606;BME280;8482;54.396;18.590;2023-06-14T00:59:47;101742.50;;;17.14;56.04
48606;BME280;8482;54.396;18.590;2023-06-14T01:02:14;101742.50;;;17.14;56.23
48606;BME280;8482;54.396;18.590;2023-06-14T01:04:44;101742.50;;;17.14;56.40
48606;BME280;8482;54.396;18.590;2023-06-14T01:13:27;101730.66;;;17.07;56.96
48606;BME280;8482;54.396;18.590;2023-06-14T01:15:55;101741.25;;;17.09;57.12
48606;BME280;8482;54.396;18.590;2023-06-14T01:18:22;101736.19;;;17.06;57.05
48606;BME280;8482;54.396;18.590;2023-06-14T01:20:50;101733.63;;;17.04;57.38
48606;BME280;8482;54.396;18.590;2023-06-14T01:23:17;101742.09;;;17.09;57.44
48606;BME280;8482;54.396;18.590;2023-06-14T01:25:43;101734.19;;;17.08;57.40
48606;BME280;8482;54.396;18.590;2023-06-14T01:28:11;101735.88;;;17.09;57.27
48606;BME280;8482;54.396;18.590;2023-06-14T01:30:42;101730.66;;;17.07;57.34
48606;BME280;8482;54.396;18.590;2023-06-14T01:33:13;101716.16;;;17.00;57.24
48606;BME280;8482;54.396;18.590;2023-06-14T01:35:43;101722.59;;;16.97;57.67
48606;BME280;8482;54.396;18.590;2023-06-14T01:38:09;101708.63;;;16.94;57.64
48606;BME280;8482;54.396;18.590;2023-06-14T01:40:36;101721.78;;;16.97;58.04
48606;BME280;8482;54.396;18.590;2023-06-14T01:43:04;101723.59;;;16.96;58.43
48606;BME280;8482;54.396;18.590;2023-06-14T01:45:31;101721.06;;;16.95;58.31
48606;BME280;8482;54.396;18.590;2023-06-14T01:47:58;101717.53;;;16.94;58.69
48606;BME280;8482;54.396;18.590;2023-06-14T01:50:31;101714.84;;;16.94;58.84
48606;BME280;8482;54.396;18.590;2023-06-14T01:52:58;101725.56;;;16.94;58.87
48606;BME280;8482;54.396;18.590;2023-06-14T01:55:23;101726.66;;;16.92;59.00
48606;BME280;8482;54.396;18.590;2023-06-14T01:57:53;101727.53;;;16.92;59.27
48606;BME280;8482;54.396;18.590;2023-06-14T02:00:20;101720.59;;;16.90;59.35
48606;BME280;8482;54.396;18.590;2023-06-14T02:02:47;101718.06;;;16.88;59.48
48606;BME280;8482;54.396;18.590;2023-06-14T02:05:13;101717.34;;;16.86;59.78
48606;BME280;8482;54.396;18.590;2023-06-14T02:07:39;101723.56;;;16.87;60.04
48606;BME280;8482;54.396;18.590;2023-06-14T02:10:05;101707.88;;;16.82;59.89
48606;BME280;8482;54.396;18.590;2023-06-14T02:12:31;101722.88;;;16.84;60.15
48606;BME280;8482;54.396;18.590;2023-06-14T02:14:57;101710.44;;;16.83;60.25
48606;BME280;8482;54.396;18.590;2023-06-14T02:17:23;101704.38;;;16.81;60.17
48606;BME280;8482;54.396;18.590;2023-06-14T02:19:50;101712.97;;;16.85;60.38
48606;BME280;8482;54.396;18.590;2023-06-14T02:22:16;101705.91;;;16.84;60.50
48606;BME280;8482;54.396;18.590;2023-06-14T02:24:43;101713.84;;;16.85;60.69
48606;BME280;8482;54.396;18.590;2023-06-14T02:27:09;101706.91;;;16.83;60.99
48606;BME280;8482;54.396;18.590;2023-06-14T02:29:36;101717.19;;;16.88;61.25
48606;BME280;8482;54.396;18.590;2023-06-14T02:32:04;101718.22;;;16.87;61.12
48606;BME280;8482;54.396;18.590;2023-06-14T02:34:30;101715.53;;;16.87;61.15
48606;BME280;8482;54.396;18.590;2023-06-14T02:36:56;101719.88;;;16.88;61.07
48606;BME280;8482;54.396;18.590;2023-06-14T02:39:22;101714.53;;;16.88;61.33
48606;BME280;8482;54.396;18.590;2023-06-14T02:41:49;101716.38;;;16.87;61.24
48606;BME280;8482;54.396;18.590;2023-06-14T02:44:18;101716.53;;;16.85;61.35
48606;BME280;8482;54.396;18.590;2023-06-14T02:46:44;101699.00;;;16.81;61.55
48606;BME280;8482;54.396;18.590;2023-06-14T02:49:11;101708.47;;;16.85;61.75
48606;BME280;8482;54.396;18.590;2023-06-14T02:51:37;101712.16;;;16.84;61.78
48606;BME280;8482;54.396;18.590;2023-06-14T02:54:03;101710.28;;;16.85;62.06
48606;BME280;8482;54.396;18.590;2023-06-14T02:56:29;101716.53;;;16.85;62.24
48606;BME280;8482;54.396;18.590;2023-06-14T02:58:55;101708.59;;;16.84;62.49
48606;BME280;8482;54.396;18.590;2023-06-14T03:01:25;101709.47;;;16.84;62.70
48606;BME280;8482;54.396;18.590;2023-06-14T03:04:03;101706.63;;;16.86;62.97
48606;BME280;8482;54.396;18.590;2023-06-14T03:06:30;101714.25;;;16.91;63.05
48606;BME280;8482;54.396;18.590;2023-06-14T03:08:58;101708.78;;;16.92;63.29
48606;BME280;8482;54.396;18.590;2023-06-14T03:11:31;101702.44;;;16.93;63.52
48606;BME280;8482;54.396;18.590;2023-06-14T03:13:57;101708.63;;;16.94;63.62
48606;BME280;8482;54.396;18.590;2023-06-14T03:16:23;101708.09;;;17.00;63.96
48606;BME280;8482;54.396;18.590;2023-06-14T03:18:53;101718.69;;;17.02;64.04
48606;BME280;8482;54.396;18.590;2023-06-14T03:21:22;101722.06;;;17.04;64.24
48606;BME280;8482;54.396;18.590;2023-06-14T03:23:48;101713.88;;;17.05;64.45
48606;BME280;8482;54.396;18.590;2023-06-14T03:26:15;101720.94;;;17.06;64.49
48606;BME280;8482;54.396;18.590;2023-06-14T03:28:44;101718.97;;;17.08;64.53
48606;BME280;8482;54.396;18.590;2023-06-14T03:31:12;101721.38;;;17.11;64.66
48606;BME280;8482;54.396;18.590;2023-06-14T03:33:39;101716.13;;;17.10;64.60
48606;BME280;8482;54.396;18.590;2023-06-14T03:36:06;101716.72;;;17.13;64.76
48606;BME280;8482;54.396;18.590;2023-06-14T03:38:32;101726.72;;;17.11;64.86
48606;BME280;8482;54.396;18.590;2023-06-14T03:40:58;101724.06;;;17.11;64.71
48606;BME280;8482;54.396;18.590;2023-06-14T03:43:24;101726.31;;;17.16;64.85
48606;BME280;8482;54.396;18.590;2023-06-14T03:45:50;101723.63;;;17.16;64.91
48606;BME280;8482;54.396;18.590;2023-06-14T03:48:16;101727.13;;;17.16;64.83
48606;BME280;8482;54.396;18.590;2023-06-14T03:50:42;101726.31;;;17.16;64.98
48606;BME280;8482;54.396;18.590;2023-06-14T03:53:10;101725.44;;;17.15;65.12
48606;BME280;8482;54.396;18.590;2023-06-14T03:55:36;101725.31;;;17.17;64.98
48606;BME280;8482;54.396;18.590;2023-06-14T03:58:03;101735.78;;;17.20;64.92
48606;BME280;8482;54.396;18.590;2023-06-14T04:00:29;101727.56;;;17.22;64.87
48606;BME280;8482;54.396;18.590;2023-06-14T04:02:55;101729.13;;;17.24;64.81
48606;BME280;8482;54.396;18.590;2023-06-14T04:05:21;101730.97;;;17.24;65.03
48606;BME280;8482;54.396;18.590;2023-06-14T04:07:47;101721.94;;;17.25;64.93
48606;BME280;8482;54.396;18.590;2023-06-14T04:10:15;101723.75;;;17.24;65.42
48606;BME280;8482;54.396;18.590;2023-06-14T04:12:42;101735.19;;;17.26;65.36
48606;BME280;8482;54.396;18.590;2023-06-14T04:15:09;101740.56;;;17.26;65.38
48606;BME280;8482;54.396;18.590;2023-06-14T04:17:36;101737.88;;;17.26;65.39
48606;BME280;8482;54.396;18.590;2023-06-14T04:20:03;101730.81;;;17.25;65.67
48606;BME280;8482;54.396;18.590;2023-06-14T04:22:34;101741.97;;;17.30;65.43
48606;BME280;8482;54.396;18.590;2023-06-14T04:25:00;101741.09;;;17.30;65.76
48606;BME280;8482;54.396;18.590;2023-06-14T04:27:27;101729.28;;;17.33;65.54
48606;BME280;8482;54.396;18.590;2023-06-14T04:29:54;101734.31;;;17.36;65.43
48606;BME280;8482;54.396;18.590;2023-06-14T04:32:26;101736.88;;;17.37;65.63
48606;BME280;8482;54.396;18.590;2023-06-14T04:34:56;101739.25;;;17.40;65.51
48606;BME280;8482;54.396;18.590;2023-06-14T04:37:23;101733.63;;;17.43;65.54
48606;BME280;8482;54.396;18.590;2023-06-14T04:39:49;101724.75;;;17.43;65.48
48606;BME280;8482;54.396;18.590;2023-06-14T04:42:16;101735.75;;;17.50;65.70
48606;BME280;8482;54.396;18.590;2023-06-14T04:44:43;101737.13;;;17.54;65.93
48606;BME280;8482;54.396;18.590;2023-06-14T04:47:10;101740.41;;;17.57;65.71
48606;BME280;8482;54.396;18.590;2023-06-14T04:49:38;101732.91;;;17.61;65.91
48606;BME280;8482;54.396;18.590;2023-06-14T04:52:06;101738.81;;;17.65;66.01
48606;BME280;8482;54.396;18.590;2023-06-14T04:54:33;101736.84;;;17.67;66.13
48606;BME280;8482;54.396;18.590;2023-06-14T04:56:59;101731.03;;;17.71;65.86
48606;BME280;8482;54.396;18.590;2023-06-14T04:59:25;101728.91;;;17.75;65.85
48606;BME280;8482;54.396;18.590;2023-06-14T05:01:52;101732.44;;;17.75;66.00
48606;BME280;8482;54.396;18.590;2023-06-14T05:04:19;101739.78;;;17.83;65.94
48606;BME280;8482;54.396;18.590;2023-06-14T05:06:47;101737.66;;;17.87;66.15
48606;BME280;8482;54.396;18.590;2023-06-14T05:09:16;101741.59;;;17.92;65.71
48606;BME280;8482;54.396;18.590;2023-06-14T05:11:45;101743.00;;;17.97;65.58
48606;BME280;8482;54.396;18.590;2023-06-14T05:14:11;101744.41;;;18.01;65.22
48606;BME280;8482;54.396;18.590;2023-06-14T05:16:38;101754.03;;;18.03;65.17
48606;BME280;8482;54.396;18.590;2023-06-14T05:19:04;101742.97;;;18.06;64.82
48606;BME280;8482;54.396;18.590;2023-06-14T05:21:31;101743.56;;;18.10;64.70
48606;BME280;8482;54.396;18.590;2023-06-14T05:23:59;101734.19;;;18.14;64.31
48606;BME280;8482;54.396;18.590;2023-06-14T05:26:25;101739.16;;;18.19;64.13
48606;BME280;8482;54.396;18.590;2023-06-14T05:28:58;101731.09;;;18.19;63.98
48606;BME280;8482;54.396;18.590;2023-06-14T05:31:26;101727.09;;;18.23;63.63
48606;BME280;8482;54.396;18.590;2023-06-14T05:33:53;101727.63;;;18.27;63.12
48606;BME280;8482;54.396;18.590;2023-06-14T05:36:20;101727.06;;;18.33;63.07
48606;BME280;8482;54.396;18.590;2023-06-14T05:38:46;101729.75;;;18.33;62.84
48606;BME280;8482;54.396;18.590;2023-06-14T05:41:13;101736.34;;;18.38;62.61
48606;BME280;8482;54.396;18.590;2023-06-14T05:43:39;101741.28;;;18.43;62.59
48606;BME280;8482;54.396;18.590;2023-06-14T05:46:05;101748.06;;;18.47;62.64
48606;BME280;8482;54.396;18.590;2023-06-14T05:48:31;101742.69;;;18.47;62.35
48606;BME280;8482;54.396;18.590;2023-06-14T05:50:57;101748.31;;;18.54;62.39
48606;BME280;8482;54.396;18.590;2023-06-14T05:53:23;101746.31;;;18.56;62.35
48606;BME280;8482;54.396;18.590;2023-06-14T05:55:50;101755.75;;;18.60;62.33
48606;BME280;8482;54.396;18.590;2023-06-14T05:58:19;101740.31;;;18.62;62.50
48606;BME280;8482;54.396;18.590;2023-06-14T06:00:45;101747.94;;;18.67;62.00
48606;BME280;8482;54.396;18.590;2023-06-14T06:03:12;101744.97;;;18.70;61.67
48606;BME280;8482;54.396;18.590;2023-06-14T06:05:39;101758.78;;;18.75;61.70
48606;BME280;8482;54.396;18.590;2023-06-14T06:08:05;101757.63;;;18.78;61.20
48606;BME280;8482;54.396;18.590;2023-06-14T06:10:31;101750.44;;;18.78;61.02
48606;BME280;8482;54.396;18.590;2023-06-14T06:12:57;101749.81;;;18.84;60.77
48606;BME280;8482;54.396;18.590;2023-06-14T06:15:23;101750.34;;;18.88;60.60
48606;BME280;8482;54.396;18.590;2023-06-14T06:17:50;101751.75;;;18.92;60.57
48606;BME280;8482;54.396;18.590;2023-06-14T06:20:17;101764.47;;;19.00;60.53
48606;BME280;8482;54.396;18.590;2023-06-14T06:22:43;101753.88;;;18.98;59.53
48606;BME280;8482;54.396;18.590;2023-06-14T06:25:09;101761.47;;;19.03;59.13
48606;BME280;8482;54.396;18.590;2023-06-14T06:27:35;101758.47;;;19.06;58.78
48606;BME280;8482;54.396;18.590;2023-06-14T06:30:06;101764.41;;;19.10;58.62
48606;BME280;8482;54.396;18.590;2023-06-14T06:32:32;101766.75;;;19.13;58.09
48606;BME280;8482;54.396;18.590;2023-06-14T06:34:58;101760.25;;;19.16;57.59
48606;BME280;8482;54.396;18.590;2023-06-14T06:37:25;101760.94;;;19.18;57.18
48606;BME280;8482;54.396;18.590;2023-06-14T06:39:51;101759.97;;;19.19;57.16
48606;BME280;8482;54.396;18.590;2023-06-14T06:42:17;101769.91;;;19.26;57.02
48606;BME280;8482;54.396;18.590;2023-06-14T06:44:43;101767.94;;;19.28;56.93
48606;BME280;8482;54.396;18.590;2023-06-14T06:47:09;101763.78;;;19.34;56.83
48606;BME280;8482;54.396;18.590;2023-06-14T06:49:36;101761.63;;;19.38;56.34
48606;BME280;8482;54.396;18.590;2023-06-14T06:52:05;101765.69;;;19.42;56.02
48606;BME280;8482;54.396;18.590;2023-06-14T06:54:32;101766.56;;;19.42;55.42
48606;BME280;8482;54.396;18.590;2023-06-14T06:56:59;101766.09;;;19.47;54.96
48606;BME280;8482;54.396;18.590;2023-06-14T06:59:27;101775.84;;;19.48;54.44
48606;BME280;8482;54.396;18.590;2023-06-14T07:01:53;101772.84;;;19.51;54.06
48606;BME280;8482;54.396;18.590;2023-06-14T07:04:19;101776.06;;;19.55;53.97
48606;BME280;8482;54.396;18.590;2023-06-14T07:06:46;101765.00;;;19.58;54.24
48606;BME280;8482;54.396;18.590;2023-06-14T07:09:13;101772.91;;;19.59;53.76
48606;BME280;8482;54.396;18.590;2023-06-14T07:11:42;101771.75;;;19.62;53.17
48606;BME280;8482;54.396;18.590;2023-06-14T07:14:08;101768.75;;;19.65;53.23
48606;BME280;8482;54.396;18.590;2023-06-14T07:16:34;101773.66;;;19.70;52.72
48606;BME280;8482;54.396;18.590;2023-06-14T07:19:01;101777.22;;;19.70;52.55
48606;BME280;8482;54.396;18.590;2023-06-14T07:21:27;101780.56;;;19.72;52.30
48606;BME280;8482;54.396;18.590;2023-06-14T07:23:54;101774.03;;;19.75;52.22
48606;BME280;8482;54.396;18.590;2023-06-14T07:26:20;101783.47;;;19.79;52.39
48606;BME280;8482;54.396;18.590;2023-06-14T07:28:47;101781.34;;;19.83;52.39
48606;BME280;8482;54.396;18.590;2023-06-14T07:31:15;101788.97;;;19.87;52.46
48606;BME280;8482;54.396;18.590;2023-06-14T07:33:42;101776.19;;;19.89;52.34
48606;BME280;8482;54.396;18.590;2023-06-14T07:36:08;101781.94;;;19.95;52.42
48606;BME280;8482;54.396;18.590;2023-06-14T07:38:34;101779.09;;;19.96;52.18
48606;BME280;8482;54.396;18.590;2023-06-14T07:41:00;101781.16;;;20.02;52.35
48606;BME280;8482;54.396;18.590;2023-06-14T07:43:27;101783.53;;;20.05;51.91
48606;BME280;8482;54.396;18.590;2023-06-14T07:45:53;101778.81;;;20.08;51.83
48606;BME280;8482;54.396;18.590;2023-06-14T07:48:19;101782.88;;;20.12;51.79
48606;BME280;8482;54.396;18.590;2023-06-14T07:50:45;101785.13;;;20.16;51.76
48606;BME280;8482;54.396;18.590;2023-06-14T07:53:11;101781.94;;;20.21;51.39
48606;BME280;8482;54.396;18.590;2023-06-14T07:55:36;101784.16;;;20.26;51.55
48606;BME280;8482;54.396;18.590;2023-06-14T07:58:03;101788.22;;;20.30;51.49
48606;BME280;8482;54.396;18.590;2023-06-14T08:00:29;101787.72;;;20.34;51.36
48606;BME280;8482;54.396;18.590;2023-06-14T08:02:55;101790.78;;;20.40;51.42
48606;BME280;8482;54.396;18.590;2023-06-14T08:05:25;101784.22;;;20.42;51.24
48606;BME280;8482;54.396;18.590;2023-06-14T08:07:52;101796.38;;;20.46;51.09
48606;BME280;8482;54.396;18.590;2023-06-14T08:10:18;101796.03;;;20.49;51.08
48606;BME280;8482;54.396;18.590;2023-06-14T08:12:44;101785.13;;;20.51;51.14
48606;BME280;8482;54.396;18.590;2023-06-14T08:15:10;101793.72;;;20.55;50.91
48606;BME280;8482;54.396;18.590;2023-06-14T08:17:36;101796.44;;;20.63;50.71
48606;BME280;8482;54.396;18.590;2023-06-14T08:20:03;101796.13;;;20.66;51.14
48606;BME280;8482;54.396;18.590;2023-06-14T08:22:31;101792.94;;;20.71;50.97
48606;BME280;8482;54.396;18.590;2023-06-14T08:25:00;101794.34;;;20.75;50.71
48606;BME280;8482;54.396;18.590;2023-06-14T08:27:27;101797.53;;;20.78;50.70
48606;BME280;8482;54.396;18.590;2023-06-14T08:29:53;101797.91;;;20.84;51.22
48606;BME280;8482;54.396;18.590;2023-06-14T08:32:19;101800.13;;;20.88;51.11
48606;BME280;8482;54.396;18.590;2023-06-14T08:34:45;101797.59;;;20.95;51.27
48606;BME280;8482;54.396;18.590;2023-06-14T08:37:11;101800.81;;;20.98;50.64
48606;BME280;8482;54.396;18.590;2023-06-14T08:39:37;101796.94;;;21.01;49.77
48606;BME280;8482;54.396;18.590;2023-06-14T08:42:05;101796.59;;;21.04;49.16
48606;BME280;8482;54.396;18.590;2023-06-14T08:44:33;101806.22;;;21.07;49.01
48606;BME280;8482;54.396;18.590;2023-06-14T08:47:03;101799.97;;;21.06;48.71
48606;BME280;8482;54.396;18.590;2023-06-14T08:49:31;101801.69;;;21.07;48.43
48606;BME280;8482;54.396;18.590;2023-06-14T08:52:00;101803.00;;;21.11;48.38
48606;BME280;8482;54.396;18.590;2023-06-14T08:54:29;101796.78;;;21.11;47.93
48606;BME280;8482;54.396;18.590;2023-06-14T08:56:57;101798.28;;;21.13;47.94
48606;BME280;8482;54.396;18.590;2023-06-14T08:59:27;101799.50;;;21.19;48.11
48606;BME280;8482;54.396;18.590;2023-06-14T09:01:54;101800.84;;;21.23;48.26
48606;BME280;8482;54.396;18.590;2023-06-14T09:04:23;101807.44;;;21.29;47.92
48606;BME280;8482;54.396;18.590;2023-06-14T09:06:56;101799.00;;;21.32;47.54
48606;BME280;8482;54.396;18.590;2023-06-14T09:09:22;101803.22;;;21.35;47.54
48606;BME280;8482;54.396;18.590;2023-06-14T09:11:50;101792.28;;;21.36;47.58
48606;BME280;8482;54.396;18.590;2023-06-14T09:14:18;101794.47;;;21.41;47.59
48606;BME280;8482;54.396;18.590;2023-06-14T09:16:44;101793.28;;;21.43;47.65
48606;BME280;8482;54.396;18.590;2023-06-14T09:19:24;101790.94;;;21.49;47.58
48606;BME280;8482;54.396;18.590;2023-06-14T09:21:50;101789.56;;;21.53;47.57
48606;BME280;8482;54.396;18.590;2023-06-14T09:24:19;101791.75;;;21.57;47.61
48606;BME280;8482;54.396;18.590;2023-06-14T09:26:50;101785.53;;;21.65;47.83
48606;BME280;8482;54.396;18.590;2023-06-14T09:29:18;101784.38;;;21.68;47.49
48606;BME280;8482;54.396;18.590;2023-06-14T09:31:47;101790.97;;;21.73;47.28
48606;BME280;8482;54.396;18.590;2023-06-14T09:34:13;101788.75;;;21.77;47.09
48606;BME280;8482;54.396;18.590;2023-06-14T09:36:40;101784.72;;;21.81;47.01
48606;BME280;8482;54.396;18.590;2023-06-14T09:39:08;101790.25;;;21.88;47.17
48606;BME280;8482;54.396;18.590;2023-06-14T09:41:37;101792.13;;;21.96;47.17
48606;BME280;8482;54.396;18.590;2023-06-14T09:44:05;101792.28;;;22.02;47.48
48606;BME280;8482;54.396;18.590;2023-06-14T09:46:33;101785.34;;;22.08;47.00
48606;BME280;8482;54.396;18.590;2023-06-14T09:49:00;101787.66;;;22.11;46.96
48606;BME280;8482;54.396;18.590;2023-06-14T09:51:27;101792.22;;;22.19;46.94
48606;BME280;8482;54.396;18.590;2023-06-14T09:54:00;101783.44;;;22.25;46.89
48606;BME280;8482;54.396;18.590;2023-06-14T09:56:29;101789.81;;;22.32;46.43
48606;BME280;8482;54.396;18.590;2023-06-14T09:58:59;101788.09;;;22.40;46.73
48606;BME280;8482;54.396;18.590;2023-06-14T10:01:28;101791.81;;;22.47;46.36
48606;BME280;8482;54.396;18.590;2023-06-14T10:04:02;101790.28;;;22.53;45.86
48606;BME280;8482;54.396;18.590;2023-06-14T10:06:29;101790.41;;;22.59;45.41
48606;BME280;8482;54.396;18.590;2023-06-14T10:09:00;101781.94;;;22.62;45.00
48606;BME280;8482;54.396;18.590;2023-06-14T10:11:27;101787.84;;;22.66;44.67
48606;BME280;8482;54.396;18.590;2023-06-14T10:13:55;101782.56;;;22.73;44.34
48606;BME280;8482;54.396;18.590;2023-06-14T10:16:33;101781.88;;;22.79;44.32
48606;BME280;8482;54.396;18.590;2023-06-14T10:24:30;101776.00;;;22.99;44.49
48606;BME280;8482;54.396;18.590;2023-06-14T10:26:59;101771.94;;;23.03;44.55
48606;BME280;8482;54.396;18.590;2023-06-14T10:29:29;101781.00;;;23.10;44.72
48606;BME280;8482;54.396;18.590;2023-06-14T10:31:59;101773.53;;;23.12;44.36
48606;BME280;8482;54.396;18.590;2023-06-14T10:34:28;101772.53;;;23.13;44.26
48606;BME280;8482;54.396;18.590;2023-06-14T10:37:06;101774.22;;;23.14;43.69
48606;BME280;8482;54.396;18.590;2023-06-14T10:39:44;101766.28;;;23.13;43.56
48606;BME280;8482;54.396;18.590;2023-06-14T10:42:14;101767.59;;;23.17;44.16
48606;BME280;8482;54.396;18.590;2023-06-14T10:44:49;101761.69;;;23.21;44.52
48606;BME280;8482;54.396;18.590;2023-06-14T10:47:36;101769.06;;;23.27;44.89
48606;BME280;8482;54.396;18.590;2023-06-14T10:52:43;101767.97;;;23.37;45.12
48606;BME280;8482;54.396;18.590;2023-06-14T10:55:18;101766.41;;;23.42;45.03
48606;BME280;8482;54.396;18.590;2023-06-14T10:57:50;101761.28;;;23.48;44.88
48606;BME280;8482;54.396;18.590;2023-06-14T11:00:19;101767.84;;;23.53;45.04
48606;BME280;8482;54.396;18.590;2023-06-14T11:05:57;101765.81;;;23.70;44.93
48606;BME280;8482;54.396;18.590;2023-06-14T11:08:55;101769.28;;;23.79;44.97
48606;BME280;8482;54.396;18.590;2023-06-14T11:11:32;101766.31;;;23.89;45.17
48606;BME280;8482;54.396;18.590;2023-06-14T11:14:01;101761.88;;;23.96;44.96
48606;BME280;8482;54.396;18.590;2023-06-14T11:16:28;101764.03;;;24.01;45.25
48606;BME280;8482;54.396;18.590;2023-06-14T11:18:55;101759.75;;;24.07;45.38
48606;BME280;8482;54.396;18.590;2023-06-14T11:21:21;101760.88;;;24.12;45.59
48606;BME280;8482;54.396;18.590;2023-06-14T11:23:51;101765.88;;;24.15;45.64
48606;BME280;8482;54.396;18.590;2023-06-14T11:26:28;101767.66;;;24.23;46.13
48606;BME280;8482;54.396;18.590;2023-06-14T11:28:59;101762.72;;;24.27;46.65
48606;BME280;8482;54.396;18.590;2023-06-14T11:31:29;101769.06;;;24.34;46.87
48606;BME280;8482;54.396;18.590;2023-06-14T11:34:00;101764.50;;;24.35;46.89
48606;BME280;8482;54.396;18.590;2023-06-14T11:36:30;101773.66;;;24.33;47.30
48606;BME280;8482;54.396;18.590;2023-06-14T11:39:05;101767.59;;;24.31;47.37
48606;BME280;8482;54.396;18.590;2023-06-14T11:41:38;101763.00;;;24.32;47.61
48606;BME280;8482;54.396;18.590;2023-06-14T11:44:05;101763.84;;;24.32;47.59
48606;BME280;8482;54.396;18.590;2023-06-14T11:46:32;101753.09;;;24.39;47.34
48606;BME280;8482;54.396;18.590;2023-06-14T11:48:58;101758.41;;;24.47;46.83
48606;BME280;8482;54.396;18.590;2023-06-14T11:51:24;101765.97;;;24.52;46.29
48606;BME280;8482;54.396;18.590;2023-06-14T11:53:50;101759.31;;;24.55;45.82
48606;BME280;8482;54.396;18.590;2023-06-14T11:56:17;101765.38;;;24.57;45.88
48606;BME280;8482;54.396;18.590;2023-06-14T11:58:43;101756.50;;;24.63;46.22
48606;BME280;8482;54.396;18.590;2023-06-14T12:01:09;101754.03;;;24.68;46.43
48606;BME280;8482;54.396;18.590;2023-06-14T12:03:50;101754.44;;;24.80;46.53
48606;BME280;8482;54.396;18.590;2023-06-14T12:06:26;101754.50;;;24.87;46.12
48606;BME280;8482;54.396;18.590;2023-06-14T12:08:59;101744.50;;;24.87;45.48
48606;BME280;8482;54.396;18.590;2023-06-14T12:11:32;101745.31;;;24.88;45.16
48606;BME280;8482;54.396;18.590;2023-06-14T12:13:59;101747.00;;;24.89;45.27
48606;BME280;8482;54.396;18.590;2023-06-14T12:16:35;101742.69;;;24.94;45.12
48606;BME280;8482;54.396;18.590;2023-06-14T12:19:16;101734.81;;;25.00;44.58
48606;BME280;8482;54.396;18.590;2023-06-14T12:21:46;101739.66;;;25.04;44.21
48606;BME280;8482;54.396;18.590;2023-06-14T12:24:14;101742.38;;;25.04;44.30
48606;BME280;8482;54.396;18.590;2023-06-14T12:26:41;101745.31;;;25.09;44.17
48606;BME280;8482;54.396;18.590;2023-06-14T12:29:07;101727.63;;;25.14;44.15
48606;BME280;8482;54.396;18.590;2023-06-14T12:31:33;101741.69;;;25.24;43.19
48606;BME280;8482;54.396;18.590;2023-06-14T12:34:00;101735.13;;;25.33;43.08
48606;BME280;8482;54.396;18.590;2023-06-14T12:36:26;101741.91;;;25.44;43.12
48606;BME280;8482;54.396;18.590;2023-06-14T12:38:52;101738.84;;;25.54;42.41
48606;BME280;8482;54.396;18.590;2023-06-14T12:41:21;101732.00;;;25.58;42.16
48606;BME280;8482;54.396;18.590;2023-06-14T12:43:48;101737.88;;;25.62;42.17
48606;BME280;8482;54.396;18.590;2023-06-14T12:46:14;101737.66;;;25.63;41.85
48606;BME280;8482;54.396;18.590;2023-06-14T12:48:40;101740.19;;;25.65;41.82
48606;BME280;8482;54.396;18.590;2023-06-14T12:51:06;101732.88;;;25.65;41.61
48606;BME280;8482;54.396;18.590;2023-06-14T12:53:32;101736.84;;;25.63;41.81
48606;BME280;8482;54.396;18.590;2023-06-14T12:55:58;101731.53;;;25.54;41.77
48606;BME280;8482;54.396;18.590;2023-06-14T12:58:23;101747.78;;;25.48;41.96
48606;BME280;8482;54.396;18.590;2023-06-14T13:00:49;101739.41;;;25.43;42.11
48606;BME280;8482;54.396;18.590;2023-06-14T13:03:16;101741.44;;;25.40;42.53
48606;BME280;8482;54.396;18.590;2023-06-14T13:05:42;101736.59;;;25.36;42.13
48606;BME280;8482;54.396;18.590;2023-06-14T13:08:08;101739.63;;;25.26;42.31
48606;BME280;8482;54.396;18.590;2023-06-14T13:10:35;101730.41;;;25.20;42.44